createdAt,value
2023-04-22T00:01:08.375Z,76
2023-04-22T00:02:09.048Z,76
2023-04-22T00:03:09.516Z,76
2023-04-22T00:04:10.204Z,76
2023-04-22T00:05:08.914Z,76
2023-04-22T00:06:07.465Z,77
2023-04-22T00:07:08.459Z,77
2023-04-22T00:08:08.375Z,77
2023-04-22T00:09:07.412Z,77
2023-04-22T00:10:08.623Z,77
2023-04-22T00:11:08.412Z,77
2023-04-22T00:12:08.840Z,77
2023-04-22T00:13:08.847Z,77
2023-04-22T00:15:08.590Z,77
2023-04-22T00:16:08.324Z,77
2023-04-22T00:17:08.675Z,77
2023-04-22T00:18:08.716Z,77
2023-04-22T00:19:08.422Z,77
2023-04-22T00:20:08.473Z,77
2023-04-22T00:21:08.803Z,77
2023-04-22T00:22:08.957Z,77
2023-04-22T00:26:08.055Z,77
2023-04-22T00:27:08.492Z,77
2023-04-22T00:28:08.530Z,77
2023-04-22T00:29:08.847Z,77
2023-04-22T00:30:08.229Z,77
2023-04-22T00:31:08.344Z,77
2023-04-22T00:32:08.545Z,77
2023-04-22T00:33:09.137Z,77
2023-04-22T00:34:08.196Z,77
2023-04-22T00:35:08.469Z,77
2023-04-22T00:36:09.068Z,77
2023-04-22T00:37:08.634Z,77
2023-04-22T00:38:08.920Z,77
2023-04-22T00:39:08.596Z,77
2023-04-22T00:40:08.778Z,77
2023-04-22T00:41:08.209Z,78
2023-04-22T00:42:08.442Z,78
2023-04-22T00:43:08.721Z,78
2023-04-22T00:44:08.936Z,78
2023-04-22T00:49:08.901Z,78
2023-04-22T00:50:08.524Z,78
2023-04-22T00:52:08.549Z,78
2023-04-22T00:53:08.630Z,78
2023-04-22T00:54:08.867Z,78
2023-04-22T00:55:09.126Z,78
2023-04-22T00:56:08.298Z,78
2023-04-22T00:57:08.508Z,78
2023-04-22T00:58:08.747Z,78
2023-04-22T00:59:08.955Z,78
2023-04-22T01:00:08.273Z,78
2023-04-22T01:04:08.709Z,78
2023-04-22T01:07:08.330Z,79
2023-04-22T01:08:08.521Z,79
2023-04-22T01:09:08.951Z,79
2023-04-22T01:10:08.126Z,79
2023-04-22T01:11:08.952Z,79
2023-04-22T01:12:08.118Z,79
2023-04-22T01:16:09.206Z,79
2023-04-22T01:20:08.238Z,79
2023-04-22T01:21:08.661Z,79
2023-04-22T01:24:08.472Z,79
2023-04-22T01:25:08.568Z,79
2023-04-22T01:26:08.444Z,79
2023-04-22T01:27:08.650Z,79
2023-04-22T01:28:08.893Z,79
2023-04-22T01:29:09.204Z,79
2023-04-22T01:30:08.281Z,79
2023-04-22T01:31:08.935Z,79
2023-04-22T01:32:08.596Z,79
2023-04-22T01:33:08.692Z,79
2023-04-22T01:34:07.601Z,79
2023-04-22T01:35:08.955Z,79
2023-04-22T01:36:08.816Z,79
2023-04-22T01:38:08.899Z,79
2023-04-22T01:39:09.184Z,79
2023-04-22T01:40:08.305Z,79
2023-04-22T01:41:08.527Z,79
2023-04-22T01:42:08.973Z,79
2023-04-22T01:43:08.194Z,79
2023-04-22T01:46:08.471Z,79
2023-04-22T01:47:08.630Z,79
2023-04-22T01:48:09.529Z,79
2023-04-22T01:49:09.054Z,79
2023-04-22T01:53:08.731Z,79
2023-04-22T01:54:08.226Z,79
2023-04-22T01:55:08.421Z,80
2023-04-22T01:56:08.534Z,80
2023-04-22T01:57:08.766Z,80
2023-04-22T01:58:09.037Z,80
2023-04-22T01:59:08.222Z,80
2023-04-22T02:00:08.628Z,80
2023-04-22T02:06:08.561Z,80
2023-04-22T02:07:08.689Z,80
2023-04-22T02:08:08.249Z,80
2023-04-22T02:09:08.384Z,80
2023-04-22T02:10:08.712Z,80
2023-04-22T02:11:08.970Z,80
2023-04-22T02:12:08.590Z,80
2023-04-22T02:13:08.691Z,80
2023-04-22T02:14:08.960Z,80
2023-04-22T02:15:08.286Z,80
2023-04-22T02:16:08.726Z,80
2023-04-22T02:17:08.886Z,80
2023-04-22T02:18:08.332Z,80
2023-04-22T02:19:08.540Z,80
2023-04-22T02:20:08.900Z,80
2023-04-22T02:21:09.030Z,80
2023-04-22T02:22:08.297Z,80
2023-04-22T02:23:08.740Z,80
2023-04-22T02:26:09.057Z,80
2023-04-22T02:27:08.376Z,80
2023-04-22T02:28:08.725Z,80
2023-04-22T02:29:08.604Z,80
2023-04-22T02:30:08.990Z,80
2023-04-22T02:31:09.255Z,80
2023-04-22T02:32:08.218Z,80
2023-04-22T02:33:08.728Z,80
2023-04-22T02:34:08.731Z,80
2023-04-22T02:35:09.160Z,80
2023-04-22T02:36:08.270Z,80
2023-04-22T02:37:08.565Z,80
2023-04-22T02:40:08.243Z,80
2023-04-22T02:41:08.602Z,80
2023-04-22T02:42:08.817Z,80
2023-04-22T02:43:08.404Z,80
2023-04-22T02:44:08.469Z,80
2023-04-22T02:45:08.905Z,80
2023-04-22T02:46:08.311Z,80
2023-04-22T02:47:08.697Z,80
2023-04-22T02:48:08.813Z,80
2023-04-22T02:49:08.863Z,80
2023-04-22T02:50:08.987Z,80
2023-04-22T02:51:08.208Z,80
2023-04-22T02:52:08.527Z,80
2023-04-22T02:53:09.085Z,80
2023-04-22T02:56:08.719Z,80
2023-04-22T02:57:08.987Z,80
2023-04-22T02:58:08.267Z,80
2023-04-22T02:59:08.501Z,80
2023-04-22T03:00:08.868Z,80
2023-04-22T03:01:08.507Z,80
2023-04-22T03:02:11.938Z,80
2023-04-22T03:03:09.213Z,80
2023-04-22T03:06:08.561Z,80
2023-04-22T03:07:08.747Z,80
2023-04-22T03:08:08.743Z,80
2023-04-22T03:09:08.156Z,80
2023-04-22T03:10:08.372Z,81
2023-04-22T03:11:08.760Z,81
2023-04-22T03:12:08.993Z,81
2023-04-22T03:13:08.165Z,81
2023-04-22T03:14:08.249Z,81
2023-04-22T03:15:08.732Z,81
2023-04-22T03:18:09.281Z,81
2023-04-22T03:19:08.046Z,81
2023-04-22T03:20:08.715Z,81
2023-04-22T03:25:08.215Z,81
2023-04-22T03:26:08.382Z,81
2023-04-22T03:27:08.961Z,81
2023-04-22T03:28:08.190Z,81
2023-04-22T03:29:08.579Z,81
2023-04-22T03:30:08.533Z,81
2023-04-22T03:31:08.208Z,81
2023-04-22T03:32:08.518Z,81
2023-04-22T03:33:08.621Z,81
2023-04-22T03:39:07.988Z,81
2023-04-22T03:40:08.386Z,81
2023-04-22T03:41:08.626Z,81
2023-04-22T03:42:08.755Z,81
2023-04-22T03:43:09.025Z,81
2023-04-22T03:44:08.817Z,81
2023-04-22T03:48:09.455Z,81
2023-04-22T03:49:08.346Z,81
2023-04-22T03:50:08.510Z,81
2023-04-22T03:51:08.624Z,81
2023-04-22T03:52:08.879Z,81
2023-04-22T03:53:09.017Z,81
2023-04-22T03:54:08.273Z,81
2023-04-22T03:55:08.545Z,81
2023-04-22T03:56:08.672Z,81
2023-04-22T03:57:09.073Z,81
2023-04-22T03:58:08.332Z,81
2023-04-22T03:59:08.526Z,81
2023-04-22T04:00:08.874Z,81
2023-04-22T04:01:08.108Z,81
2023-04-22T04:02:08.666Z,81
2023-04-22T04:03:09.599Z,81
2023-04-22T04:04:09.727Z,81
2023-04-22T04:05:08.593Z,81
2023-04-22T04:06:09.084Z,81
2023-04-22T04:09:08.464Z,81
2023-04-22T04:10:08.737Z,81
2023-04-22T04:11:08.558Z,81
2023-04-22T04:12:08.358Z,82
2023-04-22T04:13:08.536Z,82
2023-04-22T04:14:08.484Z,82
2023-04-22T04:15:09.005Z,82
2023-04-22T04:20:08.164Z,82
2023-04-22T04:21:08.256Z,82
2023-04-22T04:22:08.788Z,82
2023-04-22T04:23:08.923Z,82
2023-04-22T04:24:09.240Z,82
2023-04-22T04:25:08.153Z,82
2023-04-22T04:28:08.273Z,82
2023-04-22T04:31:08.348Z,82
2023-04-22T04:32:08.459Z,82
2023-04-22T04:33:09.427Z,82
2023-04-22T04:35:08.426Z,81
2023-04-22T04:36:08.617Z,81
2023-04-22T04:37:08.860Z,81
2023-04-22T04:38:08.258Z,81
2023-04-22T04:39:08.503Z,81
2023-04-22T04:40:08.823Z,81
2023-04-22T04:41:08.879Z,81
2023-04-22T04:42:07.994Z,81
2023-04-22T04:46:08.456Z,82
2023-04-22T04:47:08.844Z,82
2023-04-22T04:48:08.697Z,82
2023-04-22T04:49:09.014Z,82
2023-04-22T04:50:08.019Z,82
2023-04-22T04:51:08.288Z,82
2023-04-22T04:52:08.663Z,82
2023-04-22T04:53:08.774Z,82
2023-04-22T04:54:09.186Z,82
2023-04-22T04:55:08.471Z,82
2023-04-22T04:56:08.360Z,82
2023-04-22T04:57:08.690Z,82
2023-04-22T04:58:08.862Z,82
2023-04-22T04:59:09.092Z,82
2023-04-22T05:03:08.751Z,82
2023-04-22T05:04:09.861Z,82
2023-04-22T05:05:08.518Z,82
2023-04-22T05:09:08.441Z,82
2023-04-22T05:10:08.757Z,82
2023-04-22T05:11:08.862Z,82
2023-04-22T05:12:09.153Z,82
2023-04-22T05:13:08.838Z,82
2023-04-22T05:14:08.408Z,82
2023-04-22T05:15:08.714Z,82
2023-04-22T05:16:09.114Z,82
2023-04-22T05:20:08.970Z,82
2023-04-22T05:21:08.542Z,82
2023-04-22T05:22:08.699Z,82
2023-04-22T05:23:09.083Z,82
2023-04-22T05:24:08.055Z,81
2023-04-22T05:25:08.510Z,81
2023-04-22T05:31:08.045Z,80
2023-04-22T05:32:08.907Z,79
2023-04-22T05:33:09.030Z,78
2023-04-22T05:35:07.786Z,78
2023-04-22T05:36:08.807Z,76
2023-04-22T05:37:08.987Z,76
2023-04-22T05:38:08.239Z,75
2023-04-22T05:39:08.414Z,75
2023-04-22T05:40:08.943Z,75
2023-04-22T05:44:08.339Z,73
2023-04-22T05:45:08.633Z,72
2023-04-22T05:46:09.276Z,72
2023-04-22T05:47:08.184Z,72
2023-04-22T05:48:08.788Z,71
2023-04-22T05:49:08.701Z,71
2023-04-22T05:50:09.206Z,70
2023-04-22T05:51:08.381Z,69
2023-04-22T05:52:08.510Z,68
2023-04-22T05:53:08.609Z,67
2023-04-22T05:54:09.037Z,67
2023-04-22T05:55:09.314Z,65
2023-04-22T05:56:08.129Z,64
2023-04-22T05:57:08.528Z,64
2023-04-22T05:58:09.034Z,63
2023-04-22T05:59:08.865Z,63
2023-04-22T06:01:08.189Z,61
2023-04-22T06:02:08.982Z,60
2023-04-22T06:03:09.340Z,60
2023-04-22T06:04:10.681Z,59
2023-04-22T06:05:09.408Z,59
2023-04-22T06:06:08.579Z,59
2023-04-22T06:07:08.805Z,58
2023-04-22T06:08:08.846Z,57
2023-04-22T06:09:08.224Z,57
2023-04-22T06:10:09.923Z,57
2023-04-22T06:13:08.223Z,56
2023-04-22T06:14:08.391Z,56
2023-04-22T06:15:08.705Z,56
2023-04-22T06:17:08.431Z,54
2023-04-22T06:18:08.736Z,53
2023-04-22T06:19:09.148Z,53
2023-04-22T06:20:08.290Z,53
2023-04-22T06:21:08.352Z,53
2023-04-22T06:22:08.579Z,52
2023-04-22T06:25:08.350Z,51
2023-04-22T06:29:08.021Z,49
2023-04-22T06:30:08.815Z,49
2023-04-22T06:31:08.989Z,49
2023-04-22T06:32:08.824Z,49
2023-04-22T06:33:08.239Z,49
2023-04-22T06:34:08.582Z,48
2023-04-22T06:35:08.819Z,48
2023-04-22T06:36:08.904Z,48
2023-04-22T06:37:09.052Z,47
2023-04-22T06:41:08.357Z,46
2023-04-22T06:42:08.591Z,46
2023-04-22T06:43:08.933Z,46
2023-04-22T06:44:08.160Z,46
2023-04-22T06:45:08.427Z,46
2023-04-22T06:46:08.390Z,46
2023-04-22T06:47:08.859Z,45
2023-04-22T06:48:09.002Z,45
2023-04-22T06:49:08.611Z,45
2023-04-22T06:50:08.998Z,45
2023-04-22T06:51:08.812Z,45
2023-04-22T06:52:08.918Z,45
2023-04-22T06:53:08.055Z,45
2023-04-22T06:54:08.488Z,44
2023-04-22T06:55:08.788Z,44
2023-04-22T06:56:09.141Z,44
2023-04-22T06:57:08.320Z,44
2023-04-22T06:58:08.486Z,44
2023-04-22T07:01:08.148Z,44
2023-04-22T07:02:08.737Z,44
2023-04-22T07:03:08.994Z,43
2023-04-22T07:04:09.110Z,43
2023-04-22T07:05:09.263Z,42
2023-04-22T07:06:08.397Z,43
2023-04-22T07:07:08.543Z,43
2023-04-22T07:10:08.187Z,42
2023-04-22T07:11:07.971Z,42
2023-04-22T07:12:08.321Z,42
2023-04-22T07:13:08.618Z,42
2023-04-22T07:14:08.979Z,42
2023-04-22T07:15:07.714Z,42
2023-04-22T07:16:09.195Z,42
2023-04-22T07:17:08.381Z,42
2023-04-22T07:18:07.549Z,42
2023-04-22T07:19:08.858Z,43
2023-04-22T07:20:09.267Z,43
2023-04-22T07:21:08.316Z,43
2023-04-22T07:22:08.398Z,44
2023-04-22T07:23:08.883Z,45
2023-04-22T07:24:09.125Z,45
2023-04-22T07:26:08.183Z,46
2023-04-22T07:27:08.688Z,46
2023-04-22T07:28:08.923Z,46
2023-04-22T07:29:08.075Z,47
2023-04-22T07:30:08.546Z,47
2023-04-22T07:31:08.764Z,47
2023-04-22T07:33:08.655Z,48
2023-04-22T07:34:08.803Z,48
2023-04-22T07:35:08.249Z,48
2023-04-22T07:36:08.567Z,48
2023-04-22T07:37:08.898Z,48
2023-04-22T07:38:11.636Z,49
2023-04-22T07:39:08.160Z,49
2023-04-22T07:40:08.402Z,49
2023-04-22T07:41:08.636Z,49
2023-04-22T07:42:08.876Z,49
2023-04-22T07:43:08.098Z,50
2023-04-22T07:44:08.302Z,50
2023-04-22T07:45:08.475Z,50
2023-04-22T07:46:08.948Z,50
2023-04-22T07:49:08.707Z,51
2023-04-22T07:50:09.108Z,51
2023-04-22T07:52:08.213Z,51
2023-04-22T07:53:08.477Z,51
2023-04-22T07:54:08.671Z,51
2023-04-22T07:55:08.929Z,51
2023-04-22T07:56:08.102Z,51
2023-04-22T07:57:08.313Z,52
2023-04-22T07:58:08.674Z,52
2023-04-22T07:59:09.098Z,52
2023-04-22T08:00:08.319Z,52
2023-04-22T08:01:08.495Z,52
2023-04-22T08:02:09.207Z,52
2023-04-22T08:03:09.765Z,52
2023-04-22T08:04:09.135Z,52
2023-04-22T08:06:08.577Z,52
2023-04-22T08:07:35.913Z,52
2023-04-22T08:09:08.562Z,52
2023-04-22T08:11:08.140Z,52
2023-04-22T08:12:08.384Z,52
2023-04-22T08:13:08.688Z,52
2023-04-22T08:14:08.749Z,52
2023-04-22T08:15:09.131Z,52
2023-04-22T08:16:09.046Z,52
2023-04-22T08:17:08.151Z,52
2023-04-22T08:18:08.925Z,52
2023-04-22T08:20:11.518Z,52
2023-04-22T08:23:08.500Z,53
2023-04-22T08:24:08.630Z,53
2023-04-22T08:25:08.866Z,53
2023-04-22T08:26:09.224Z,53
2023-04-22T08:31:08.882Z,52
2023-04-22T08:32:08.098Z,52
2023-04-22T08:33:08.297Z,52
2023-04-22T08:34:08.460Z,52
2023-04-22T08:35:12.237Z,52
2023-04-22T08:42:07.970Z,52
2023-04-22T08:43:08.706Z,52
2023-04-22T08:44:08.529Z,52
2023-04-22T08:45:09.078Z,52
2023-04-22T08:46:08.427Z,52
2023-04-22T08:47:10.229Z,52
2023-04-22T08:48:08.979Z,52
2023-04-22T08:49:08.944Z,52
2023-04-22T08:53:08.052Z,52
2023-04-22T08:54:08.180Z,52
2023-04-22T08:55:08.448Z,52
2023-04-22T08:56:09.313Z,52
2023-04-22T08:57:08.344Z,52
2023-04-22T08:58:08.590Z,52
2023-04-22T08:59:08.809Z,52
2023-04-22T09:00:08.421Z,52
2023-04-22T09:01:08.698Z,52
2023-04-22T09:02:09.417Z,52
2023-04-22T09:03:08.372Z,52
2023-04-22T09:04:09.006Z,52
2023-04-22T09:05:08.652Z,52
2023-04-22T09:08:08.559Z,52
2023-04-22T09:09:08.741Z,52
2023-04-22T09:10:09.079Z,52
2023-04-22T09:11:08.379Z,52
2023-04-22T09:12:08.506Z,52
2023-04-22T09:13:09.074Z,52
2023-04-22T09:14:08.190Z,52
2023-04-22T09:15:08.615Z,53
2023-04-22T09:16:09.213Z,52
2023-04-22T09:17:09.030Z,52
2023-04-22T09:18:08.368Z,52
2023-04-22T09:19:08.666Z,52
2023-04-22T09:20:08.910Z,52
2023-04-22T09:21:09.132Z,52
2023-04-22T09:26:08.192Z,51
2023-04-22T09:30:08.400Z,51
2023-04-22T09:31:08.560Z,51
2023-04-22T09:32:09.008Z,51
2023-04-22T09:33:09.293Z,51
2023-04-22T09:34:08.168Z,51
2023-04-22T09:35:08.463Z,51
2023-04-22T09:36:08.588Z,51
2023-04-22T09:37:08.754Z,51
2023-04-22T09:39:08.291Z,51
2023-04-22T09:40:08.599Z,50
2023-04-22T09:41:08.928Z,50
2023-04-22T09:42:08.121Z,51
2023-04-22T09:43:08.429Z,51
2023-04-22T09:44:08.527Z,51
2023-04-22T09:45:08.982Z,50
2023-04-22T09:46:08.843Z,50
2023-04-22T09:47:08.878Z,49
2023-04-22T09:48:09.219Z,49
2023-04-22T09:52:08.011Z,49
2023-04-22T09:53:08.536Z,49
2023-04-22T09:54:08.841Z,49
2023-04-22T09:55:09.033Z,48
2023-04-22T09:57:10.561Z,48
2023-04-22T09:59:08.445Z,48
2023-04-22T10:00:08.727Z,48
2023-04-22T10:01:09.194Z,48
2023-04-22T10:02:08.568Z,48
2023-04-22T10:03:11.932Z,48
2023-04-22T10:05:08.976Z,48
2023-04-22T10:06:08.180Z,48
2023-04-22T10:07:08.565Z,48
2023-04-22T10:08:09.271Z,48
2023-04-22T10:09:11.131Z,48
2023-04-22T10:11:08.807Z,47
2023-04-22T10:12:08.968Z,47
2023-04-22T10:13:08.356Z,47
2023-04-22T10:14:08.467Z,47
2023-04-22T10:15:08.929Z,47
2023-04-22T10:16:08.444Z,47
2023-04-22T10:17:09.112Z,47
2023-04-22T10:18:08.121Z,47
2023-04-22T10:19:08.656Z,47
2023-04-22T10:23:08.126Z,47
2023-04-22T10:24:08.344Z,47
2023-04-22T10:25:08.640Z,47
2023-04-22T10:26:08.482Z,47
2023-04-22T10:27:08.790Z,47
2023-04-22T10:28:08.872Z,47
2023-04-22T10:29:08.317Z,46
2023-04-22T10:30:08.835Z,46
2023-04-22T10:31:09.165Z,46
2023-04-22T10:34:08.648Z,46
2023-04-22T10:35:09.099Z,46
2023-04-22T10:36:08.203Z,46
2023-04-22T10:37:08.431Z,46
2023-04-22T10:38:08.595Z,45
2023-04-22T10:39:08.952Z,45
2023-04-22T10:40:08.221Z,45
2023-04-22T10:41:08.466Z,44
2023-04-22T10:42:08.796Z,44
2023-04-22T10:43:09.074Z,44
2023-04-22T10:44:08.877Z,44
2023-04-22T10:48:08.762Z,44
2023-04-22T10:49:11.055Z,44
2023-04-22T10:54:08.290Z,44
2023-04-22T10:55:08.327Z,44
2023-04-22T10:56:08.484Z,43
2023-04-22T10:57:08.880Z,42
2023-04-22T10:58:09.004Z,43
2023-04-22T10:59:08.384Z,44
2023-04-22T11:00:08.654Z,44
2023-04-22T11:01:08.423Z,44
2023-04-22T11:02:08.838Z,43
2023-04-22T11:03:09.546Z,43
2023-04-22T11:04:09.099Z,42
2023-04-22T11:05:08.251Z,42
2023-04-22T11:06:08.930Z,43
2023-04-22T11:10:08.326Z,44
2023-04-22T11:11:08.497Z,44
2023-04-22T11:12:08.972Z,44
2023-04-22T11:13:08.149Z,43
2023-04-22T11:14:08.510Z,43
2023-04-22T11:15:08.715Z,43
2023-04-22T11:16:09.132Z,43
2023-04-22T11:17:08.385Z,43
2023-04-22T11:18:08.771Z,44
2023-04-22T11:19:09.097Z,44
2023-04-22T11:20:08.289Z,44
2023-04-22T11:21:08.181Z,44
2023-04-22T11:22:08.490Z,44
2023-04-22T11:23:08.642Z,44
2023-04-22T11:24:08.959Z,44
2023-04-22T11:25:08.195Z,44
2023-04-22T11:26:08.799Z,44
2023-04-22T11:29:08.574Z,44
2023-04-22T11:30:09.120Z,44
2023-04-22T11:31:08.885Z,44
2023-04-22T11:32:09.250Z,44
2023-04-22T11:33:08.399Z,44
2023-04-22T11:34:08.736Z,43
2023-04-22T11:35:09.052Z,43
2023-04-22T11:36:08.871Z,43
2023-04-22T11:37:08.211Z,43
2023-04-22T11:38:08.479Z,43
2023-04-22T11:39:08.591Z,43
2023-04-22T11:40:41.375Z,43
2023-04-22T11:42:08.173Z,43
2023-04-22T11:43:08.686Z,43
2023-04-22T11:44:08.918Z,42
2023-04-22T11:45:09.131Z,42
2023-04-22T11:46:08.356Z,42
2023-04-22T11:47:08.466Z,42
2023-04-22T11:50:08.069Z,42
2023-04-22T11:51:08.469Z,42
2023-04-22T11:52:08.672Z,42
2023-04-22T11:53:09.029Z,42
2023-04-22T11:54:08.225Z,42
2023-04-22T11:55:08.366Z,42
2023-04-22T11:56:08.581Z,43
2023-04-22T11:57:08.838Z,43
2023-04-22T11:58:09.015Z,42
2023-04-22T11:59:08.330Z,42
2023-04-22T12:01:08.317Z,41
2023-04-22T12:02:08.857Z,41
2023-04-22T12:03:09.504Z,42
2023-04-22T12:04:09.633Z,42
2023-04-22T12:05:08.533Z,42
2023-04-22T12:06:08.812Z,41
2023-04-22T12:07:09.014Z,41
2023-04-22T12:11:08.963Z,41
2023-04-22T12:12:09.050Z,41
2023-04-22T12:13:08.338Z,41
2023-04-22T12:14:08.509Z,41
2023-04-22T12:15:08.753Z,42
2023-04-22T12:16:08.872Z,41
2023-04-22T12:17:08.377Z,41
2023-04-22T12:18:08.499Z,41
2023-04-22T12:19:08.452Z,41
2023-04-22T12:22:08.156Z,41
2023-04-22T12:23:08.425Z,40
2023-04-22T12:24:08.675Z,40
2023-04-22T12:26:08.272Z,40
2023-04-22T12:27:08.492Z,40
2023-04-22T12:28:08.591Z,40
2023-04-22T12:30:08.395Z,40
2023-04-22T12:31:08.677Z,40
2023-04-22T12:32:08.982Z,40
2023-04-22T12:33:08.148Z,41
2023-04-22T12:34:08.690Z,40
2023-04-22T12:35:08.523Z,40
2023-04-22T12:36:09.133Z,40
2023-04-22T12:37:08.303Z,39
2023-04-22T12:38:08.683Z,39
2023-04-22T12:39:08.867Z,39
2023-04-22T12:40:08.002Z,39
2023-04-22T12:41:08.308Z,39
2023-04-22T12:42:08.465Z,39
2023-04-22T12:43:09.057Z,39
2023-04-22T12:44:08.049Z,39
2023-04-22T12:45:08.293Z,39
2023-04-22T12:46:08.779Z,39
2023-04-22T12:49:08.181Z,38
2023-04-22T12:50:08.607Z,38
2023-04-22T12:51:08.259Z,38
2023-04-22T12:52:08.404Z,38
2023-04-22T12:53:09.185Z,38
2023-04-22T12:56:08.487Z,38
2023-04-22T12:57:08.738Z,38
2023-04-22T12:58:08.770Z,38
2023-04-22T12:59:09.247Z,39
2023-04-22T13:00:08.377Z,38
2023-04-22T13:01:08.674Z,38
2023-04-22T13:02:09.222Z,38
2023-04-22T13:03:08.722Z,38
2023-04-22T13:04:09.159Z,38
2023-04-22T13:05:08.733Z,38
2023-04-22T13:08:13.940Z,38
2023-04-22T13:11:08.265Z,38
2023-04-22T13:12:08.326Z,38
2023-04-22T13:13:23.973Z,38
2023-04-22T13:15:09.108Z,38
2023-04-22T13:16:08.335Z,37
2023-04-22T13:17:08.629Z,37
2023-04-22T13:18:09.117Z,37
2023-04-22T13:19:08.099Z,37
2023-04-22T13:20:08.378Z,37
2023-04-22T13:21:08.612Z,37
2023-04-22T13:22:08.982Z,37
2023-04-22T13:23:08.038Z,37
2023-04-22T13:24:08.363Z,37
2023-04-22T13:25:08.641Z,37
2023-04-22T13:26:08.772Z,37
2023-04-22T13:27:08.900Z,37
2023-04-22T13:30:08.967Z,38
2023-04-22T13:31:08.216Z,37
2023-04-22T13:32:08.474Z,37
2023-04-22T13:33:08.690Z,37
2023-04-22T13:34:08.684Z,37
2023-04-22T13:35:08.197Z,37
2023-04-22T13:36:08.427Z,37
2023-04-22T13:39:08.006Z,37
2023-04-22T13:40:08.754Z,37
2023-04-22T13:41:09.986Z,37
2023-04-22T13:42:08.992Z,37
2023-04-22T13:46:08.371Z,37
2023-04-22T13:47:09.418Z,36
2023-04-22T13:48:08.816Z,36
2023-04-22T13:49:09.144Z,36
2023-04-22T13:50:08.268Z,37
2023-04-22T13:51:08.043Z,37
2023-04-22T13:52:08.287Z,36
2023-04-22T13:53:08.522Z,36
2023-04-22T13:54:08.497Z,36
2023-04-22T13:58:08.224Z,36
2023-04-22T13:59:08.650Z,35
2023-04-22T14:00:09.198Z,35
2023-04-22T14:01:08.817Z,35
2023-04-22T14:02:08.132Z,35
2023-04-22T14:03:08.913Z,36
2023-04-22T14:04:08.954Z,36
2023-04-22T14:05:08.404Z,36
2023-04-22T14:06:08.947Z,36
2023-04-22T14:07:08.925Z,36
2023-04-22T14:08:08.270Z,36
2023-04-22T14:09:08.509Z,36
2023-04-22T14:10:08.914Z,36
2023-04-22T14:11:08.314Z,35
2023-04-22T14:12:08.740Z,35
2023-04-22T14:13:08.881Z,35
2023-04-22T14:16:11.426Z,35
2023-04-22T14:18:08.236Z,34
2023-04-22T14:19:08.372Z,34
2023-04-22T14:20:08.722Z,34
2023-04-22T14:21:09.012Z,34
2023-04-22T14:22:08.316Z,34
2023-04-22T14:23:08.684Z,34
2023-04-22T14:24:08.849Z,34
2023-04-22T14:25:08.001Z,34
2023-04-22T14:26:07.682Z,34
2023-04-22T14:27:08.960Z,34
2023-04-22T14:28:09.060Z,34
2023-04-22T14:29:08.303Z,34
2023-04-22T14:30:08.535Z,34
2023-04-22T14:31:09.252Z,34
2023-04-22T14:32:08.218Z,34
2023-04-22T14:33:08.603Z,34
2023-04-22T14:34:08.511Z,34
2023-04-22T14:35:08.827Z,34
2023-04-22T14:40:08.410Z,34
2023-04-22T14:41:08.698Z,34
2023-04-22T14:42:08.849Z,34
2023-04-22T14:43:08.229Z,34
2023-04-22T14:44:08.614Z,34
2023-04-22T14:45:08.791Z,34
2023-04-22T14:46:08.338Z,34
2023-04-22T14:50:08.455Z,34
2023-04-22T14:51:08.548Z,34
2023-04-22T14:52:09.078Z,34
2023-04-22T14:53:07.887Z,34
2023-04-22T14:54:08.356Z,34
2023-04-22T14:55:27.617Z,34
2023-04-22T14:57:08.216Z,34
2023-04-22T14:58:08.670Z,34
2023-04-22T14:59:08.845Z,34
2023-04-22T15:00:09.338Z,34
2023-04-22T15:01:10.127Z,34
2023-04-22T15:02:08.710Z,35
2023-04-22T15:03:09.432Z,34
2023-04-22T15:06:08.560Z,35
2023-04-22T15:07:11.775Z,35
2023-04-22T15:15:08.253Z,35
2023-04-22T15:16:09.235Z,35
2023-04-22T15:20:10.804Z,35
2023-04-22T15:22:08.825Z,35
2023-04-22T15:23:09.229Z,35
2023-04-22T15:24:08.382Z,35
2023-04-22T15:25:08.929Z,35
2023-04-22T15:27:08.867Z,35
2023-04-22T15:28:08.896Z,35
2023-04-22T15:29:09.155Z,35
2023-04-22T15:30:08.459Z,35
2023-04-22T15:31:08.674Z,35
2023-04-22T15:32:08.914Z,35
2023-04-22T15:33:08.276Z,35
2023-04-22T15:34:08.451Z,35
2023-04-22T15:35:08.908Z,35
2023-04-22T15:36:08.965Z,35
2023-04-22T15:37:07.957Z,35
2023-04-22T15:38:08.207Z,35
2023-04-22T15:39:08.588Z,35
2023-04-22T15:40:09.055Z,35
2023-04-22T15:44:12.391Z,36
2023-04-22T15:45:08.718Z,36
2023-04-22T15:47:09.026Z,36
2023-04-22T15:49:09.132Z,36
2023-04-22T15:50:09.381Z,36
2023-04-22T15:51:09.010Z,36
2023-04-22T15:52:08.204Z,36
2023-04-22T15:53:08.503Z,36
2023-04-22T15:54:08.752Z,36
2023-04-22T15:55:09.439Z,36
2023-04-22T15:56:08.956Z,36
2023-04-22T15:57:08.136Z,36
2023-04-22T15:58:08.268Z,36
2023-04-22T15:59:08.566Z,36
2023-04-22T16:00:18.442Z,36
2023-04-22T16:01:22.578Z,36
2023-04-22T16:03:09.403Z,36
2023-04-22T16:04:08.720Z,36
2023-04-22T16:05:08.593Z,36
2023-04-22T16:06:08.662Z,36
2023-04-22T16:11:08.380Z,37
2023-04-22T16:12:08.696Z,37
2023-04-22T16:13:08.934Z,37
2023-04-22T16:14:08.292Z,37
2023-04-22T16:15:08.582Z,37
2023-04-22T16:16:08.822Z,37
2023-04-22T16:17:08.072Z,37
2023-04-22T16:18:07.389Z,37
2023-04-22T16:19:08.473Z,37
2023-04-22T16:20:08.629Z,37
2023-04-22T16:21:09.203Z,37
2023-04-22T16:22:08.447Z,37
2023-04-22T16:23:08.671Z,37
2023-04-22T16:24:08.980Z,37
2023-04-22T16:25:08.355Z,37
2023-04-22T16:26:08.858Z,37
2023-04-22T16:27:08.955Z,37
2023-04-22T16:28:08.077Z,37
2023-04-22T16:29:08.416Z,37
2023-04-22T16:30:08.634Z,37
2023-04-22T16:31:09.131Z,37
2023-04-22T16:34:08.766Z,37
2023-04-22T16:35:09.133Z,37
2023-04-22T16:36:08.584Z,38
2023-04-22T16:37:08.955Z,38
2023-04-22T16:38:09.105Z,38
2023-04-22T16:39:08.430Z,38
2023-04-22T16:40:08.687Z,38
2023-04-22T16:41:08.985Z,38
2023-04-22T16:42:08.208Z,38
2023-04-22T16:43:08.260Z,38
2023-04-22T16:44:08.591Z,38
2023-04-22T16:45:08.918Z,38
2023-04-22T16:46:08.797Z,38
2023-04-22T16:47:07.587Z,38
2023-04-22T16:48:09.211Z,38
2023-04-22T16:49:10.495Z,38
2023-04-22T16:53:08.145Z,39
2023-04-22T16:54:08.534Z,39
2023-04-22T16:55:08.591Z,39
2023-04-22T16:56:08.992Z,39
2023-04-22T16:57:08.173Z,39
2023-04-22T16:58:08.384Z,39
2023-04-22T16:59:08.663Z,39
2023-04-22T17:00:08.877Z,39
2023-04-22T17:01:08.528Z,39
2023-04-22T17:04:09.382Z,40
2023-04-22T17:05:08.247Z,40
2023-04-22T17:09:08.257Z,40
2023-04-22T17:10:08.949Z,40
2023-04-22T17:11:08.187Z,40
2023-04-22T17:12:08.296Z,40
2023-04-22T17:13:08.586Z,40
2023-04-22T17:14:09.062Z,40
2023-04-22T17:15:09.190Z,41
2023-04-22T17:16:08.450Z,41
2023-04-22T17:17:08.448Z,41
2023-04-22T17:18:09.080Z,41
2023-04-22T17:19:08.095Z,41
2023-04-22T17:20:08.448Z,41
2023-04-22T17:21:08.778Z,41
2023-04-22T17:22:09.127Z,41
2023-04-22T17:23:08.243Z,41
2023-04-22T17:24:08.469Z,41
2023-04-22T17:25:08.941Z,41
2023-04-22T17:26:08.986Z,41
2023-04-22T17:30:08.218Z,41
2023-04-22T17:31:08.582Z,41
2023-04-22T17:32:08.631Z,41
2023-04-22T17:33:09.143Z,41
2023-04-22T17:34:08.126Z,41
2023-04-22T17:35:08.541Z,41
2023-04-22T17:37:08.839Z,42
2023-04-22T17:38:09.053Z,42
2023-04-22T17:39:08.132Z,42
2023-04-22T17:40:08.421Z,42
2023-04-22T17:41:08.354Z,42
2023-04-22T17:42:08.615Z,42
2023-04-22T17:43:07.614Z,43
2023-04-22T17:44:08.758Z,43
2023-04-22T17:45:08.992Z,43
2023-04-22T17:47:12.116Z,43
2023-04-22T17:50:08.995Z,43
2023-04-22T17:51:09.318Z,44
2023-04-22T17:52:08.188Z,44
2023-04-22T17:53:08.420Z,44
2023-04-22T17:56:08.391Z,45
2023-04-22T17:57:08.867Z,45
2023-04-22T17:58:09.039Z,45
2023-04-22T17:59:09.180Z,45
2023-04-22T18:00:08.379Z,45
2023-04-22T18:01:08.773Z,46
2023-04-22T18:02:09.095Z,46
2023-04-22T18:03:08.887Z,46
2023-04-22T18:04:09.159Z,46
2023-04-22T18:05:08.648Z,46
2023-04-22T18:08:08.193Z,47
2023-04-22T18:09:08.649Z,47
2023-04-22T18:10:08.976Z,47
2023-04-22T18:11:08.133Z,48
2023-04-22T18:12:08.381Z,48
2023-04-22T18:13:08.702Z,48
2023-04-22T18:14:08.880Z,49
2023-04-22T18:15:09.195Z,49
2023-04-22T18:16:08.190Z,49
2023-04-22T18:17:08.736Z,49
2023-04-22T18:18:08.829Z,50
2023-04-22T18:19:09.065Z,50
2023-04-22T18:20:21.242Z,50
2023-04-22T18:22:08.576Z,50
2023-04-22T18:23:08.869Z,51
2023-04-22T18:24:07.949Z,51